Flight Track Log - Related Links

Times and Time Zones

All times are in EDT time to prevent confusion due to time zone crossing. See the BMBR604 flight status page for this flight to view local times or setup timezone preferences in your user account.

Time Position Orientation Groundspeed Altitude Reporting Facility
EDT Latitude Longitude Course Direction KTS MPH feet Rate Location/Type
Wed 01:11:30 AM -31.9955 115.9195 North 1,500  Level Aus ATC (Calculated)
Wed 01:14:00 AM -31.9970 115.9190 195° South  Level FlightAware Approximate
Wed 01:14:27 AM -31.8883 115.9522 355° North 1,500  Level Aus ATC (Calculated)
Wed 01:15:00 AM -31.9977 115.9188 195° South  Level FlightAware Approximate
Wed 01:16:00 AM -31.8893 115.9519 195° South  Level FlightAware Approximate
Wed 01:16:12 AM -31.8347 115.9685 348° North 1,500  Level Aus ATC (Calculated)
Wed 01:16:30 AM -31.8347 115.9685 348° North 1,500 -21 Level Aus ATC (Calculated)
Wed 01:17:16 AM -31.7811 115.9848 336° Northwest 1,500 -21 Level Aus ATC (Calculated)
Wed 01:18:04 AM -31.7811 115.9848 336° Northwest 1,500 -22 Level Aus ATC (Calculated)
Wed 01:20:00 AM -31.7823 115.9845 194° South  Level FlightAware Approximate
Wed 01:20:07 AM -31.7275 116.0011 309° West 1,500  Level Aus ATC (Calculated)
Wed 01:22:00 AM -31.7287 116.0008 194° South  Level FlightAware Approximate
Wed 01:23:00 AM -31.7293 116.0006 194° South  Level FlightAware Approximate
Wed 01:24:00 AM -31.7299 116.0004 194° South  Level FlightAware Approximate
Wed 01:24:04 AM -31.7811 115.9848 336° Northwest 400  Level Aus ATC (Calculated)
Wed 01:24:49 AM -31.8347 115.9685 348° North 400 16 Level Aus ATC (Calculated)
Wed 01:25:19 AM -31.8347 115.9685 348° North 400 16 Level Aus ATC (Calculated)
Wed 01:26:19 AM -31.8883 115.9522 355° North 400 16 Level Aus ATC (Calculated)
Wed 01:27:49 AM -31.9419 115.9359 359° North 400 17 Level Aus ATC (Calculated)
Wed 01:28:00 AM -31.8887 115.9521 319° Northwest  Level Estimated
Wed 01:29:00 AM -31.9422 115.9358 197° South  Level FlightAware Approximate
Wed 01:29:13 AM -32.0491 115.9031 North 400  Level Aus ATC (Calculated)
Wed 01:29:13 AM -32.0491 115.9031 North 400 20 Level Aus ATC (Calculated)
Wed 01:31:00 AM -32.0495 115.9029 201° Southwest  Level FlightAware Approximate
Wed 01:32:00 AM -32.0498 115.9028 201° Southwest  Level FlightAware Approximate
Wed 01:33:00 AM -32.0500 115.9027 201° Southwest  Level FlightAware Approximate
Wed 01:34:00 AM -32.0502 115.9026 201° Southwest  Level FlightAware Approximate
Wed 01:35:00 AM -32.0504 115.9025 201° Southwest  Level FlightAware Approximate
Wed 01:36:00 AM -32.0507 115.9024 201° Southwest  Level FlightAware Approximate
Wed 01:37:00 AM -32.0509 115.9023 201° Southwest  Level FlightAware Approximate
Wed 01:38:00 AM -32.0511 115.9022 201° Southwest  Level FlightAware Approximate
Wed 01:39:00 AM -32.0514 115.9021 201° Southwest  Level FlightAware Approximate
Wed 01:40:00 AM -32.0516 115.9020 201° Southwest  Level FlightAware Approximate
Wed 01:41:00 AM -32.0518 115.9019 201° Southwest  Level FlightAware Approximate
Wed 01:42:00 AM -32.0520 115.9018 201° Southwest  Level FlightAware Approximate
Wed 01:43:00 AM -32.0523 115.9017 201° Southwest  Level FlightAware Approximate
Wed 01:44:00 AM -32.0525 115.9016 201° Southwest  Level FlightAware Approximate
Wed 01:45:00 AM -32.0527 115.9015 201° Southwest  Level FlightAware Approximate
Wed 01:46:00 AM -32.0530 115.9014 319° Northwest  Level Estimated
Wed 01:47:00 AM -32.0532 115.9013 319° Northwest  Level Estimated
Wed 01:48:00 AM -32.0534 115.9012 319° Northwest  Level Estimated
Wed 01:49:00 AM -32.0536 115.9011 319° Northwest  Level Estimated
Wed 01:49:41 AM -31.6774 115.9297 319° Northwest 137 158 800  Level Aus ATC (RADAR)
Wed 01:50:16 AM -31.6744 115.9013 277° West 146 168 800  Level Aus ATC (RADAR)
Wed 01:50:36 AM -31.6729 115.8845 276° West 147 169 800  Level Aus ATC (RADAR)
Wed 01:51:11 AM -31.6703 115.8547 276° West 155 178 800 -67 Level Aus ATC (RADAR)
Wed 01:52:06 AM -31.6609 115.8090 284° West 155 178 700 -133 Descending Aus ATC (RADAR)
Wed 01:52:41 AM -31.6793 115.8003 202° Southwest 152 175 600 -67 Descending Aus ATC (RADAR)
Wed 01:53:36 AM -31.6552 115.8017 North 117 135 600  Level Aus ATC (RADAR)
Wed 01:54:30 AM -31.6559 115.7949 263° West 149 171 600 202 Level Aus ATC (RADAR)
Wed 01:55:05 AM -31.6786 115.7829 204° Southwest 155 178 900 480 Climbing Aus ATC (RADAR)
Wed 01:55:20 AM -31.6892 115.7792 196° South 157 181 1,000 240 Climbing Aus ATC (RADAR)
Wed 01:55:55 AM -31.7143 115.7688 199° South 162 186 1,100 253 Climbing Aus ATC (RADAR)
Wed 01:56:55 AM -31.7587 115.7503 199° South 168 193 1,400 189 Climbing Aus ATC (RADAR)
Wed 01:57:30 AM -31.7853 115.7371 203° Southwest 177 204 1,400  Level Aus ATC (RADAR)
Wed 02:00:55 AM -31.9458 115.8108 90° East 400 -265 Descending Aus ATC (Calculated)
Wed 02:01:16 AM -31.9458 115.8108 162° South 400  Level Aus ATC (Calculated)
Wed 02:02:00 AM -31.9460 115.8109 319° Northwest  Level Estimated
Wed 02:03:00 AM -31.9462 115.8110 319° Northwest  Level Estimated
Wed 02:03:40 AM -32.1027 115.8867 338° Northwest 400  Level Aus ATC (Calculated)
Wed 02:04:00 AM -31.9464 115.8111 319° Northwest  Level Estimated
Wed 02:04:55 AM -32.0974 115.8812 360° North 100  Level Aus ATC (Calculated)
Wed 02:05:00 AM -32.0974 115.8812 319° Northwest  Level FlightAware Approximate
Wed 02:06:00 AM -32.0975 115.8811 319° Northwest  Level Estimated
Wed 02:07:00 AM -32.0975 115.8811 319° Northwest  Level Estimated
Wed 02:08:00 AM -32.0975 115.8811 319° Northwest  Level Estimated
Wed 02:09:00 AM -32.0975 115.8811 319° Northwest  Level Estimated
Wed 02:10:00 AM -32.0975 115.8811 319° Northwest  Level Estimated
Wed 02:11:00 AM -32.0975 115.8811 319° Northwest  Level Estimated
Wed 02:12:00 AM -32.0975 115.8811 319° Northwest  Level Estimated
Wed 02:13:00 AM -32.0975 115.8811 319° Northwest  Level Estimated
Wed 02:14:00 AM -32.0975 115.8811 319° Northwest  Level Estimated
Wed 02:15:00 AM -32.0975 115.8811 319° Northwest  Level Estimated
Wed 02:16:00 AM -32.0975 115.8811 319° Northwest  Level Estimated
Wed 02:17:00 AM -32.0975 115.8811 319° Northwest  Level Estimated
Wed 02:18:00 AM -32.0975 115.8811 319° Northwest  Level Estimated
Wed 02:19:00 AM -32.0975 115.8811 319° Northwest  Level Estimated
Wed 02:20:00 AM -32.0975 115.8811 319° Northwest  Level Estimated
Wed 02:21:00 AM -32.0975 115.8811 319° Northwest  Level Estimated
Wed 02:22:00 AM -32.0975 115.8811 319° Northwest  Level Estimated
Wed 02:23:00 AM -32.0975 115.8811 319° Northwest  Level Estimated
Wed 02:24:00 AM -32.0975 115.8811 319° Northwest  Level Estimated

Login

Don't have an account? Register now (free) for customized features, flight alerts, and more!